Latest Weather Observations for Kilmore Gap

IDV60801

Issued at 9:31 am EDT Sunday 1 March 2015 (issued every 30 minutes, with the page automatically refreshed every 10 minutes)

About weather observations | Map of weather stations | Latest weather observations for VIC | Other Formats
Station Details ID: 088162 Name: KILMORE GAP Lat: -37.38 Lon: 144.97 Height: 527.8 m
Data from the previous 72 hours. | See also: Recent months at Kilmore Gap
Date/Time
EDT
Temp
°C
App
Temp
°C
Dew
Point
Rel
Hum
%
Delta-T
°C
Wind Press
QNH
hPa
Press
MSL
hPa
Rain
since 9 am
mm
Dir
 
Spd
km/h
Gust
km/h
Spd
kts
Gust
kts
01/09:30am 12.6 8.7 12.0 96 0.3 SSW 24 39 13 21 1012.2 - 0.0
01/09:00am 12.8 9.9 12.2 96 0.3 S 19 28 10 15 1011.8 1010.6 14.6
01/08:49am 12.2 8.9 11.6 96 0.3 SSW 20 37 11 20 1011.6 - 14.6
01/08:30am 11.8 8.5 11.6 99 0.1 SSW 20 35 11 19 1011.5 - 14.6
01/08:00am 11.2 7.0 11.2 100 0.0 SSW 24 33 13 18 1011.0 - 14.6
01/07:39am 11.0 6.8 11.0 100 0.0 SSW 24 33 13 18 1010.6 - 14.6
01/07:30am 10.9 7.0 10.9 100 0.0 SSW 22 32 12 17 1010.4 - 14.6
01/07:00am 11.1 6.9 11.1 100 0.0 SSW 24 35 13 19 1009.9 - 14.6
01/06:35am 11.2 6.6 11.2 100 0.0 SSW 26 39 14 21 1009.4 - 14.6
01/06:30am 11.2 7.0 11.2 100 0.0 SSW 24 37 13 20 1009.3 - 14.6
01/06:00am 11.5 7.8 11.5 100 0.0 SSW 22 33 12 18 1009.1 1007.8 14.6
01/05:33am 11.8 7.4 11.8 100 0.0 SSW 26 37 14 20 1008.8 - 14.6
01/05:30am 11.9 7.6 11.9 100 0.0 SSW 26 37 14 20 1008.8 - 14.6
01/05:00am 12.1 8.2 12.1 100 0.0 SSW 24 41 13 22 1008.4 - 14.6
01/04:34am 12.2 7.6 12.2 100 0.0 SW 28 46 15 25 1008.1 - 14.4
01/04:30am 12.1 6.7 12.1 100 0.0 SW 32 46 17 25 1007.9 - 14.4
01/04:00am 12.6 6.8 12.6 100 0.0 SW 35 56 19 30 1007.3 - 14.2
01/03:37am 13.6 9.0 13.6 100 0.0 SSW 30 48 16 26 1007.0 - 13.8
01/03:30am 14.0 10.3 14.0 100 0.0 SSW 26 43 14 23 1007.1 - 13.8
01/03:00am 14.8 11.8 14.8 100 0.0 SSW 24 39 13 21 1006.6 1005.3 13.8
01/02:30am 15.0 11.7 15.0 100 0.0 SSW 26 37 14 20 1006.6 - 13.8
01/02:00am 15.8 14.5 15.8 100 0.0 SSW 17 22 9 12 1006.9 - 13.6
01/01:57am 15.8 14.9 15.8 100 0.0 SSW 15 20 8 11 1007.0 - 13.6
01/01:48am 15.9 15.0 15.9 100 0.0 S 15 20 8 11 1007.1 - 13.6
01/01:30am 15.9 15.4 15.9 100 0.0 SSW 13 19 7 10 1007.5 - 13.6
01/01:00am 16.3 15.6 16.3 100 0.0 S 15 20 8 11 1006.8 - 13.0
01/12:41am 16.1 16.4 16.1 100 0.0 S 9 13 5 7 1007.2 - 12.2
01/12:30am 16.1 16.0 16.1 100 0.0 SE 11 13 6 7 1006.5 - 12.2
01/12:13am 16.1 15.7 16.1 100 0.0 ESE 13 17 7 9 1006.6 - 12.2
01/12:00am 16.0 15.2 16.0 100 0.0 ESE 15 19 8 10 1006.6 1005.3 11.6
 
Date/Time
EDT
Temp
°C
App
Temp
°C
Dew
Point
Rel
Hum
%
Delta-T
°C
Wind Press
QNH
hPa
Press
MSL
hPa
Rain
since 9 am
mm
Dir
 
Spd
km/h
Gust
km/h
Spd
kts
Gust
kts
28/11:53pm 16.0 15.2 16.0 100 0.0 SE 15 19 8 10 1006.5 - 11.4
28/11:46pm 16.0 15.9 16.0 100 0.0 SE 11 15 6 8 1006.8 - 11.0
28/11:30pm 16.1 16.4 16.1 100 0.0 SE 9 13 5 7 1007.6 - 10.6
28/11:00pm 16.0 14.8 16.0 100 0.0 SE 17 22 9 12 1007.8 - 10.0
28/10:30pm 16.1 14.5 16.1 100 0.0 SSE 19 22 10 12 1008.6 - 8.4
28/10:00pm 16.4 14.8 16.4 100 0.0 SSW 20 32 11 17 1008.9 - 6.4
28/09:40pm 16.5 13.8 16.5 100 0.0 SSW 26 37 14 20 1008.7 - 1.8
28/09:30pm 16.6 13.8 16.4 99 0.1 SSW 26 37 14 20 1007.4 - 1.2
28/09:29pm 16.6 13.8 16.4 99 0.1 SSW 26 39 14 21 1007.3 - 1.2
28/09:04pm 17.3 14.3 16.7 96 0.4 SW 28 52 15 28 1006.5 - 1.2
28/09:00pm 17.5 14.1 16.7 95 0.5 SW 30 52 16 28 1006.5 1004.5 1.2
28/08:59pm 17.6 13.8 16.6 94 0.6 SW 32 52 17 28 1006.5 - 1.2
28/08:58pm 17.6 13.2 16.6 94 0.6 SSW 35 52 19 28 1006.3 - 1.2
28/08:43pm 19.7 14.7 16.0 79 2.3 WSW 37 57 20 31 1006.3 - 1.0
28/08:39pm 24.5 18.9 13.4 50 6.6 WSW 35 57 19 31 1006.2 - 0.4
28/08:36pm 26.8 22.5 7.8 30 10.4 NW 20 33 11 18 1005.2 - 0.4
28/08:30pm 26.9 21.0 7.4 29 10.6 N 28 41 15 22 1003.0 - 0.4
28/08:00pm 27.0 20.8 8.0 30 10.5 NNE 30 41 16 22 1002.1 - 0.4
28/07:30pm 27.3 20.7 7.7 29 10.8 N 32 41 17 22 1002.7 - 0.4
28/07:00pm 27.6 20.5 8.0 29 10.8 N 35 46 19 25 1003.0 - 0.4
28/06:30pm 28.1 21.7 8.4 29 11.0 N 32 41 17 22 1003.4 - 0.4
28/06:00pm 28.5 22.0 8.2 28 11.4 N 32 43 17 23 1003.8 1001.9 0.4
28/05:30pm 29.8 24.1 8.2 26 12.1 N 28 44 15 24 1004.6 - 0.4
28/05:16pm 27.7 21.2 8.1 29 10.9 N 32 50 17 27 1004.6 - 0.4
28/05:00pm 28.7 22.9 9.4 30 11.0 N 30 41 16 22 1005.0 - 0.4
28/04:30pm 27.4 20.6 7.8 29 10.8 N 33 43 18 23 1005.8 - 0.4
28/04:00pm 28.3 21.6 8.1 28 11.2 N 33 48 18 26 1005.6 - 0.4
28/03:30pm 27.0 20.0 8.4 31 10.3 N 35 44 19 24 1006.0 - 0.4
28/03:00pm 26.4 19.8 8.4 32 10.0 N 33 44 18 24 1006.2 1004.3 0.4
28/02:30pm 27.7 21.8 9.0 31 10.5 NNE 30 44 16 24 1006.7 - 0.4
28/02:00pm 23.9 18.2 9.9 41 7.9 NNE 30 35 16 19 1007.2 - 0.4
28/01:30pm 22.7 18.1 9.8 44 7.2 NNE 24 30 13 16 1007.9 - 0.4
28/01:00pm 22.2 16.4 8.0 40 7.6 N 28 37 15 20 1008.3 - 0.4
28/12:30pm 21.8 15.3 9.0 44 7.0 N 33 44 18 24 1008.7 - 0.4
28/12:00pm 20.8 14.3 10.3 51 5.9 N 35 46 19 25 1008.8 1006.9 0.4
28/11:30am 19.5 13.8 11.0 58 4.8 NNE 32 39 17 21 1008.6 - 0.4
28/11:00am 19.5 14.5 11.0 58 4.8 N 28 35 15 19 1009.1 - 0.4
28/10:30am 18.3 14.8 12.1 67 3.5 N 22 26 12 14 1009.5 - 0.4
28/10:00am 17.2 13.9 11.5 69 3.2 N 20 24 11 13 1009.6 - 0.4
28/09:30am 19.3 15.8 10.3 56 5.0 N 19 20 10 11 1009.7 - 0.0
28/09:00am 19.4 16.3 8.7 50 5.7 N 15 19 8 10 1009.4 1007.5 0.0
28/08:30am 19.7 15.7 8.1 47 6.2 N 19 20 10 11 1009.1 - 0.0
28/08:00am 19.3 15.2 8.0 48 6.0 N 19 22 10 12 1008.9 - 0.0
28/07:30am 18.8 14.6 8.2 50 5.6 N 20 22 11 12 1008.8 - 0.0
28/07:00am 17.7 14.1 9.8 60 4.3 N 19 22 10 12 1008.7 - 0.0
28/06:30am 18.1 14.3 9.2 56 4.8 N 19 22 10 12 1008.3 - 0.0
28/06:00am 17.3 13.2 10.2 63 3.9 N 22 24 12 13 1008.2 1006.3 0.0
28/05:30am 17.2 13.2 10.3 64 3.8 NNE 22 26 12 14 1007.9 - 0.0
28/05:00am 15.5 12.1 12.4 82 1.7 N 22 30 12 16 1007.9 - 0.0
28/04:30am 16.1 13.0 11.7 75 2.4 NE 19 22 10 12 1007.4 - 0.0
28/04:00am 16.9 15.0 11.8 72 2.9 NNE 13 17 7 9 1009.1 - 0.0
28/03:30am 14.1 13.5 13.6 97 0.3 ESE 9 13 5 7 1009.7 - 0.0
28/03:00am 13.9 12.7 13.9 100 0.0 SE 13 17 7 9 1009.5 1007.6 0.0
28/02:30am 13.9 13.8 13.9 100 0.0 WSW 7 9 4 5 1010.4 - 0.0
28/02:00am 14.0 13.2 14.0 100 0.0 S 11 15 6 8 1010.4 - 0.0
28/01:30am 14.1 13.3 14.1 100 0.0 S 11 17 6 9 1010.9 - 0.0
28/01:11am 14.1 12.9 14.1 100 0.0 S 13 17 7 9 1011.0 - 0.0
28/01:00am 14.2 12.7 14.2 100 0.0 S 15 20 8 11 1011.1 - 0.0
28/12:30am 14.2 12.7 14.2 100 0.0 S 15 19 8 10 1011.3 - 0.0
28/12:00am 14.5 13.1 14.5 100 0.0 S 15 24 8 13 1011.4 1009.5 0.0
 
Date/Time
EDT
Temp
°C
App
Temp
°C
Dew
Point
Rel
Hum
%
Delta-T
°C
Wind Press
QNH
hPa
Press
MSL
hPa
Rain
since 9 am
mm
Dir
 
Spd
km/h
Gust
km/h
Spd
kts
Gust
kts
27/11:30pm 14.7 12.9 14.5 99 0.1 S 17 22 9 12 1011.8 - 0.0
27/11:00pm 15.0 13.7 14.7 98 0.2 S 15 20 8 11 1011.9 - 0.0
27/10:52pm 15.0 13.3 14.7 98 0.2 SSW 17 24 9 13 1012.0 - 0.0
27/10:30pm 15.2 13.5 14.7 97 0.3 SSW 17 24 9 13 1012.0 - 0.0
27/10:26pm 15.2 13.5 14.7 97 0.3 SSW 17 24 9 13 1011.9 - 0.0
27/10:09pm 15.4 13.3 14.8 96 0.4 SSW 19 32 10 17 1011.9 - 0.0
27/10:00pm 15.5 13.4 14.7 95 0.5 SSW 19 26 10 14 1011.8 - 0.0
27/09:30pm 16.1 13.9 14.3 89 1.1 SSW 19 28 10 15 1011.6 - 0.0
27/09:00pm 16.5 13.6 12.8 79 2.1 SW 20 28 11 15 1011.3 1009.4 0.0
27/08:30pm 17.2 14.3 12.3 73 2.8 SW 19 22 10 12 1011.3 - 0.0
27/08:00pm 18.3 15.3 9.1 55 4.9 S 15 22 8 12 1010.7 - 0.0
27/07:30pm 19.6 15.7 8.6 49 5.9 S 19 24 10 13 1010.6 - 0.0
27/07:00pm 20.5 17.2 9.4 49 6.1 SSE 17 28 9 15 1010.1 - 0.0
27/06:30pm 21.3 17.8 10.2 49 6.2 SSE 19 26 10 14 1010.1 - 0.0
27/06:00pm 22.4 18.4 9.2 43 7.3 SSE 20 30 11 16 1009.9 1008.0 0.0
27/05:30pm 23.0 19.1 8.7 40 7.8 SSE 19 32 10 17 1010.1 - 0.0
27/05:00pm 24.4 20.6 9.2 38 8.4 SSE 19 30 10 16 1010.2 - 0.0
27/04:30pm 24.8 21.3 8.7 36 8.9 SSE 17 24 9 13 1010.2 - 0.0
27/04:00pm 25.0 22.1 8.1 34 9.2 SSE 13 20 7 11 1010.3 - 0.0
27/03:30pm 23.7 20.0 9.3 40 8.0 SSW 19 24 10 13 1010.9 - 0.0
27/03:00pm 24.2 21.8 10.1 41 8.0 SSE 13 24 7 13 1010.9 1009.0 0.0
27/02:30pm 23.1 20.2 9.5 42 7.5 S 15 24 8 13 1011.1 - 0.0
27/02:00pm 22.5 20.5 10.0 45 7.0 S 11 17 6 9 1011.4 - 0.0
27/01:30pm 22.6 20.8 11.0 48 6.6 S 11 20 6 11 1011.5 - 0.0
27/01:00pm 21.6 19.7 10.4 49 6.3 SE 11 20 6 11 1011.6 - 0.0
27/12:30pm 21.3 19.2 11.1 52 5.8 SSE 13 26 7 14 1012.0 - 0.0
27/12:00pm 20.5 18.7 12.2 59 4.8 SSE 13 20 7 11 1012.0 1010.2 0.0
27/11:30am 18.8 16.3 11.1 61 4.3 S 15 22 8 12 1012.6 - 0.0
27/11:00am 18.6 16.3 11.9 65 3.8 SSE 15 24 8 13 1012.6 - 0.0
27/10:30am 18.8 16.6 13.2 70 3.2 SSE 17 28 9 15 1012.1 - 0.0
27/10:00am 16.9 14.7 13.2 79 2.1 SSE 17 26 9 14 1012.1 - 0.0
27/09:30am 15.9 14.0 13.0 83 1.7 SSE 15 24 8 13 1012.0 - 0.0
27/09:05am 14.3 12.8 14.3 100 0.0 S 15 19 8 10 1011.8 - 0.0
27/09:00am 14.0 12.8 14.0 100 0.0 S 13 19 7 10 1011.9 1010.1 0.0
27/08:56am 13.6 12.3 13.6 100 0.0 S 13 19 7 10 1011.9 - 0.0
27/08:30am 13.1 11.6 13.1 100 0.0 S 13 19 7 10 1011.7 - 0.0
27/08:00am 12.6 10.6 12.6 100 0.0 S 15 19 8 10 1011.5 - 0.0
27/07:30am 12.2 10.0 12.2 100 0.0 S 15 19 8 10 1011.0 - 0.0
27/07:00am 12.2 10.8 12.2 100 0.0 S 11 17 6 9 1010.9 - 0.0
27/06:30am 12.5 10.8 12.5 100 0.0 S 13 19 7 10 1010.9 - 0.0
27/06:17am 12.2 10.4 12.2 100 0.0 S 13 17 7 9 1010.8 - 0.0
27/06:00am 12.0 10.2 12.0 100 0.0 S 13 17 7 9 1010.8 1008.9 0.0
27/05:54am 12.2 10.4 12.2 100 0.0 S 13 17 7 9 1010.6 - 0.0
27/05:30am 12.5 10.4 12.5 100 0.0 S 15 17 8 9 1010.8 - 0.0
27/05:10am 12.4 10.7 12.4 100 0.0 S 13 17 7 9 1010.8 - 0.0
27/05:00am 12.6 11.2 12.3 98 0.2 S 11 13 6 7 1010.9 - 0.0
27/04:30am 13.2 12.7 12.7 97 0.3 S 7 11 4 6 1010.8 - 0.0
27/04:00am 13.3 11.8 13.0 98 0.2 S 13 19 7 10 1011.3 - 0.0
27/03:30am 13.2 11.3 13.0 99 0.1 SSW 15 22 8 12 1011.8 - 0.0
27/03:00am 12.9 11.5 12.3 96 0.3 SSW 11 17 6 9 1011.6 1009.7 0.0
27/02:30am 13.2 12.2 12.4 95 0.4 S 9 13 5 7 1011.5 - 0.0
27/02:00am 13.3 11.7 12.8 97 0.3 S 13 19 7 10 1011.7 - 0.0
27/01:30am 13.0 10.6 12.5 97 0.3 S 17 20 9 11 1011.9 - 0.0
27/01:24am 12.8 10.4 12.6 99 0.1 S 17 22 9 12 1011.9 - 0.0
27/01:05am 13.3 11.1 13.3 100 0.0 S 17 22 9 12 1011.9 - 0.0
27/01:00am 13.5 11.4 13.5 100 0.0 S 17 24 9 13 1012.0 - 0.0
27/12:30am 14.0 12.0 14.0 100 0.0 S 17 24 9 13 1012.4 - 0.0
27/12:00am 14.1 11.8 14.1 100 0.0 S 19 26 10 14 1012.6 1010.7 0.0
 
Date/Time
EDT
Temp
°C
App
Temp
°C
Dew
Point
Rel
Hum
%
Delta-T
°C
Wind Press
QNH
hPa
Press
MSL
hPa
Rain
since 9 am
mm
Dir
 
Spd
km/h
Gust
km/h
Spd
kts
Gust
kts
26/11:30pm 13.9 11.9 13.9 100 0.0 S 17 24 9 13 1012.6 - 0.0
26/11:00pm 13.7 11.6 13.5 99 0.1 S 17 24 9 13 1012.4 - 0.0
26/10:31pm 13.9 11.4 13.4 97 0.3 S 19 24 10 13 1012.6 - 0.0
26/10:30pm 14.0 11.5 13.5 97 0.3 S 19 24 10 13 1012.6 - 0.0
26/10:00pm 14.1 11.8 13.1 94 0.6 S 17 24 9 13 1012.6 - 0.0
26/09:30pm 14.7 12.1 13.2 91 0.9 S 19 24 10 13 1012.4 - 0.0
26/09:00pm 15.1 13.1 14.0 93 0.6 S 17 22 9 12 1012.1 1010.3 0.0
26/08:30pm 15.9 14.3 13.9 88 1.2 S 15 24 8 13 1011.6 - 0.0
26/08:00pm 17.2 14.8 13.7 80 2.0 S 19 26 10 14 1011.0 - 0.0
26/07:30pm 18.6 16.0 13.7 73 2.9 S 20 32 11 17 1010.7 - 0.0
26/07:00pm 19.9 17.4 13.4 66 3.8 SSE 19 28 10 15 1010.3 - 0.0
26/06:30pm 21.0 18.3 13.4 62 4.5 S 20 30 11 16 1010.1 - 0.0
26/06:00pm 21.5 19.1 13.7 61 4.6 S 19 28 10 15 1010.1 1008.2 0.0
26/05:30pm 22.3 19.9 13.9 59 5.0 S 19 30 10 16 1010.2 - 0.0
26/05:00pm 22.3 19.8 14.2 60 4.9 S 20 30 11 16 1010.2 - 0.0
26/04:30pm 23.1 21.8 14.7 59 5.1 S 15 28 8 15 1010.6 - 0.0
26/04:00pm 22.0 20.0 13.9 60 4.8 S 17 26 9 14 1010.6 - 0.0
26/03:30pm 22.9 20.5 13.7 56 5.5 S 19 32 10 17 1010.9 - 0.0
26/03:00pm 23.5 20.9 13.7 54 5.9 S 20 32 11 17 1011.1 1009.2 0.0
26/02:30pm 22.6 20.2 12.8 54 5.7 S 17 28 9 15 1011.3 - 0.0
26/02:00pm 22.0 19.1 12.8 56 5.4 S 20 33 11 18 1011.5 - 0.0
26/01:30pm 22.7 19.7 12.6 53 5.9 S 20 33 11 18 1011.7 - 0.0
26/01:00pm 21.9 19.4 12.2 54 5.6 S 17 28 9 15 1011.8 - 0.0
26/12:30pm 20.8 19.1 13.7 64 4.2 S 15 26 8 14 1011.8 - 0.0
26/12:00pm 19.2 16.8 12.7 66 3.7 S 17 24 9 13 1012.1 1010.3 0.0
26/11:30am 18.7 17.2 13.1 70 3.2 S 13 19 7 10 1012.2 - 0.0
26/11:00am 18.1 16.8 13.6 75 2.6 SSE 13 20 7 11 1012.3 - 0.0
26/10:30am 15.8 14.3 14.3 91 0.9 S 15 24 8 13 1012.3 - 0.0
26/10:00am 15.0 14.5 15.0 100 0.0 S 11 17 6 9 1012.0 - 0.0
26/09:52am 15.2 15.2 15.2 100 0.0 S 9 13 5 7 1012.0 - 0.0

Other Formats:

Comma delimited format used in spreadsheet applications
http://www.bom.gov.au/fwo/IDV60801/IDV60801.94860.axf

JavaScript Object Notation format (JSON) in row-major order
http://www.bom.gov.au/fwo/IDV60801/IDV60801.94860.json